Time;durP1;ratioP1;P1;durP2;ratioP2;P2;SDS_P1;SDS_P2;PMS_P1;PMS_P2;Temp;Humidity;BMP_temperature;BMP_pressure;BME280_temperature;BME280_humidity;BME280_pressure;Samples;Min_cycle;Max_cycle;Signal;HPM_P1;HPM_P2
2022/03/19 00:02:21;;;;;;;19.02;9.35;;;;;;;6.30;77.90;104323.34;5054393;28;20053;-73
2022/03/19 00:04:47;;;;;;;14.82;9.13;;;;;;;6.28;77.90;104335.34;5053396;28;20021;-73
2022/03/19 00:07:13;;;;;;;13.38;9.20;;;;;;;6.29;78.10;104326.75;5053786;28;20021;-74
2022/03/19 00:09:39;;;;;;;16.65;9.50;;;;;;;6.27;78.05;104330.97;5053858;28;20036;-73
2022/03/19 00:12:06;;;;;;;15.35;8.68;;;;;;;6.24;78.46;104322.16;5054336;28;20391;-74
2022/03/19 00:14:31;;;;;;;20.73;9.77;;;;;;;6.21;78.61;104327.16;5053019;28;20037;-74
2022/03/19 00:16:57;;;;;;;16.60;10.25;;;;;;;6.14;78.98;104325.97;5052996;28;20042;-74
2022/03/19 00:19:23;;;;;;;17.20;9.82;;;;;;;6.10;79.00;104334.41;5053422;28;20066;-74
2022/03/19 00:21:49;;;;;;;15.65;9.27;;;;;;;6.05;79.39;104328.13;5053557;28;20036;-73
2022/03/19 00:24:14;;;;;;;19.90;10.00;;;;;;;5.99;79.08;104323.50;5053840;28;20033;-73
2022/03/19 00:26:40;;;;;;;19.73;9.55;;;;;;;5.89;79.56;104321.22;5053155;28;20036;-73
2022/03/19 00:29:05;;;;;;;14.82;9.27;;;;;;;5.95;79.34;104323.25;5054035;28;20530;-74
2022/03/19 00:31:30;;;;;;;17.13;10.23;;;;;;;5.94;79.90;104329.25;5053788;28;20029;-74
2022/03/19 00:33:56;;;;;;;17.85;9.95;;;;;;;5.94;80.09;104324.09;5052462;28;20032;-74
2022/03/19 00:36:21;;;;;;;17.83;9.45;;;;;;;5.93;80.00;104319.72;5053519;28;20495;-73
2022/03/19 00:38:46;;;;;;;16.25;9.70;;;;;;;5.90;80.47;104316.94;5053927;28;20059;-74
2022/03/19 00:41:13;;;;;;;15.32;9.48;;;;;;;5.92;80.19;104323.06;5052761;28;20032;-73
2022/03/19 00:43:38;;;;;;;16.98;9.57;;;;;;;5.91;80.08;104317.00;5053163;28;20346;-73
2022/03/19 00:46:04;;;;;;;16.42;9.35;;;;;;;5.89;80.64;104310.88;5053869;28;20028;-74
2022/03/19 00:48:29;;;;;;;17.38;9.38;;;;;;;5.81;80.29;104320.81;5052256;28;20029;-73
2022/03/19 00:50:55;;;;;;;17.02;10.27;;;;;;;5.79;81.02;104311.22;5052631;28;20052;-74
2022/03/19 00:53:20;;;;;;;18.25;10.02;;;;;;;5.68;80.86;104302.88;5052025;28;20400;-73
2022/03/19 00:55:45;;;;;;;17.50;9.82;;;;;;;5.70;81.41;104314.22;5052335;28;20051;-74
2022/03/19 00:58:12;;;;;;;23.23;11.10;;;;;;;5.72;81.10;104309.09;5053366;28;20051;-73
2022/03/19 01:00:37;;;;;;;21.42;11.18;;;;;;;5.68;81.10;104307.16;5053257;28;20166;-74
2022/03/19 01:03:02;;;;;;;18.33;10.57;;;;;;;5.70;81.71;104306.44;5052457;28;20035;-74
2022/03/19 01:05:28;;;;;;;16.55;9.55;;;;;;;5.67;81.54;104306.28;5052930;28;20028;-74
2022/03/19 01:07:55;;;;;;;19.20;10.70;;;;;;;5.66;81.64;104314.88;5053301;28;20495;-73
2022/03/19 01:10:26;;;;;;;15.48;10.63;;;;;;;5.62;81.95;104306.06;5052484;28;20059;-74
2022/03/19 01:12:53;;;;;;;19.67;10.93;;;;;;;5.61;82.31;104303.38;5052871;28;20029;-74
2022/03/19 01:15:19;;;;;;;19.77;11.13;;;;;;;5.65;82.34;104307.88;5052801;28;20025;-74
2022/03/19 01:17:45;;;;;;;20.13;11.45;;;;;;;5.61;82.44;104300.78;5052095;28;20530;-74
2022/03/19 01:20:12;;;;;;;18.70;11.15;;;;;;;5.61;82.39;104306.84;5052422;28;20044;-74
2022/03/19 01:22:38;;;;;;;20.73;12.20;;;;;;;5.61;82.62;104304.25;5052744;28;20035;-74
2022/03/19 01:25:05;;;;;;;17.08;11.30;;;;;;;5.60;82.30;104297.31;5051796;28;20032;-74
2022/03/19 01:27:35;;;;;;;20.30;11.73;;;;;;;5.57;82.60;104299.72;5052497;28;20033;-74
2022/03/19 01:30:00;;;;;;;20.23;12.32;;;;;;;5.59;82.59;104299.78;5052009;28;20036;-74
2022/03/19 01:32:26;;;;;;;22.20;13.02;;;;;;;5.60;82.74;104304.19;5052516;28;20385;-74
2022/03/19 01:34:53;;;;;;;22.40;12.52;;;;;;;5.50;82.38;104283.81;5052235;28;20033;-74
2022/03/19 01:37:19;;;;;;;21.27;12.30;;;;;;;5.56;82.64;104287.59;5051740;28;20021;-74
2022/03/19 01:39:44;;;;;;;19.30;13.27;;;;;;;5.50;82.83;104301.94;5052568;28;20032;-73
2022/03/19 01:42:09;;;;;;;19.40;12.77;;;;;;;5.46;83.36;104293.13;5052412;28;20028;-73
2022/03/19 01:44:34;;;;;;;22.67;14.40;;;;;;;5.43;83.25;104287.78;5051401;28;20396;-74
2022/03/19 01:47:10;;;;;;;21.80;13.35;;;;;;;5.39;83.77;104284.13;5052359;28;20018;-74
2022/03/19 01:49:36;;;;;;;21.75;13.57;;;;;;;5.36;84.17;104289.16;5052252;28;20078;-74
2022/03/19 01:52:03;;;;;;;19.58;13.35;;;;;;;5.34;84.21;104280.41;5051582;28;20037;-74
2022/03/19 01:54:32;;;;;;;20.90;13.63;;;;;;;5.32;84.35;104279.41;5051567;28;20033;-74
2022/03/19 01:56:58;;;;;;;20.10;13.38;;;;;;;5.29;84.19;104276.66;5052034;28;20029;-74
2022/03/19 01:59:28;;;;;;;22.23;13.88;;;;;;;5.32;84.38;104284.59;5051093;28;20044;-74
2022/03/19 02:01:54;;;;;;;19.15;13.52;;;;;;;5.26;83.64;104276.50;5052235;28;20074;-74
2022/03/19 02:04:21;;;;;;;22.70;14.02;;;;;;;5.26;84.88;104273.03;5051512;28;20029;-74
2022/03/19 02:06:46;;;;;;;22.55;14.57;;;;;;;5.16;85.00;104261.31;5051271;28;20032;-73
2022/03/19 02:09:12;;;;;;;21.73;13.48;;;;;;;5.22;84.72;104277.16;5051942;28;20029;-73
2022/03/19 02:11:37;;;;;;;22.77;15.18;;;;;;;5.13;85.11;104261.13;5051533;28;20503;-73
2022/03/19 02:14:03;;;;;;;27.77;15.25;;;;;;;5.11;85.60;104258.47;5050277;28;20027;-74
2022/03/19 02:16:29;;;;;;;22.58;14.40;;;;;;;5.11;85.44;104262.78;5050572;28;20095;-74
2022/03/19 02:18:57;;;;;;;22.75;15.05;;;;;;;5.06;86.09;104261.63;5051780;28;20029;-74
2022/03/19 02:21:22;;;;;;;25.77;15.38;;;;;;;5.03;86.24;104269.22;5051126;28;20048;-73
2022/03/19 02:26:45;;;;;;;24.05;16.10;;;;;;;4.97;86.69;104253.34;5051072;28;20106;-73
2022/03/19 02:29:11;;;;;;;23.90;16.20;;;;;;;4.93;86.75;104257.47;5050353;28;20029;-73
2022/03/19 02:31:41;;;;;;;26.15;16.08;;;;;;;4.99;86.50;104249.16;5051729;28;20025;-73
2022/03/19 02:34:08;;;;;;;24.13;16.35;;;;;;;4.97;86.87;104240.44;5050282;28;20037;-73
2022/03/19 02:36:35;;;;;;;27.40;17.02;;;;;;;4.93;86.82;104241.97;5051461;28;20100;-73
2022/03/19 02:39:10;;;;;;;28.42;16.95;;;;;;;4.90;87.31;104249.56;5050765;28;20029;-74
2022/03/19 02:41:41;;;;;;;24.13;16.80;;;;;;;4.86;87.36;104235.56;5042670;28;20421;-73
2022/03/19 02:44:06;;;;;;;27.35;16.92;;;;;;;4.85;87.48;104231.22;5042647;28;20063;-74
2022/03/19 02:46:38;;;;;;;24.25;17.08;;;;;;;4.82;87.75;104228.47;5051269;28;20060;-73
2022/03/19 02:49:04;;;;;;;26.10;16.88;;;;;;;4.75;88.20;104226.34;5050888;28;20024;-74
2022/03/19 02:51:32;;;;;;;25.55;17.13;;;;;;;4.73;88.36;104232.25;5050935;28;20145;-74
2022/03/19 02:53:57;;;;;;;27.02;17.25;;;;;;;4.73;88.53;104224.50;5050648;28;20437;-74
2022/03/19 02:56:22;;;;;;;26.40;17.52;;;;;;;4.69;88.68;104232.06;5046841;28;20071;-73
2022/03/19 02:58:48;;;;;;;27.00;18.52;;;;;;;4.64;88.50;104236.13;5050933;28;20029;-73
2022/03/19 03:01:13;;;;;;;25.30;17.15;;;;;;;4.61;88.89;104229.84;5050449;28;20029;-73
2022/03/19 03:03:39;;;;;;;27.52;18.10;;;;;;;4.57;89.27;104227.91;5050348;28;20518;-73
2022/03/19 03:06:04;;;;;;;26.23;17.48;;;;;;;4.55;89.78;104230.44;5051189;28;20389;-73
2022/03/19 03:08:30;;;;;;;25.65;17.52;;;;;;;4.53;89.71;104231.16;5050447;28;20041;-74
2022/03/19 03:10:55;;;;;;;27.92;17.55;;;;;;;4.50;89.71;104238.72;5050764;28;20422;-74
2022/03/19 03:13:20;;;;;;;29.65;17.83;;;;;;;4.50;89.74;104241.31;5050742;28;20025;-73
2022/03/19 03:15:46;;;;;;;30.20;18.52;;;;;;;4.46;90.76;104235.97;5050515;28;20384;-73
2022/03/19 03:18:11;;;;;;;28.02;18.30;;;;;;;4.45;90.36;104233.31;5051095;28;20066;-73
2022/03/19 03:20:36;;;;;;;30.08;18.27;;;;;;;4.45;90.82;104226.44;5051145;28;20149;-73
2022/03/19 03:23:03;;;;;;;26.85;18.30;;;;;;;4.45;90.82;104231.63;5050572;28;20071;-73
2022/03/19 03:25:28;;;;;;;25.20;17.45;;;;;;;4.52;91.04;104234.53;5050611;28;20473;-74
2022/03/19 03:27:54;;;;;;;29.48;18.38;;;;;;;4.44;90.92;104222.06;5051120;28;20112;-74
2022/03/19 03:30:20;;;;;;;32.35;18.25;;;;;;;4.50;91.46;104231.84;5049956;28;20041;-73
2022/03/19 03:32:46;;;;;;;28.38;18.50;;;;;;;4.46;91.24;104235.06;5050887;28;20492;-73
2022/03/19 03:35:12;;;;;;;31.52;18.33;;;;;;;4.35;91.37;104225.81;5050288;28;20033;-73
2022/03/19 03:37:37;;;;;;;30.25;18.63;;;;;;;4.39;91.71;104236.44;5049683;28;20037;-73
2022/03/19 03:40:03;;;;;;;27.23;17.55;;;;;;;4.38;92.67;104242.41;5051276;28;20032;-73
2022/03/19 03:42:29;;;;;;;31.13;19.08;;;;;;;4.30;92.34;104216.94;5050349;28;20043;-74
2022/03/19 03:44:58;;;;;;;33.03;18.23;;;;;;;4.33;92.51;104241.25;5050051;28;20100;-73
2022/03/19 03:47:23;;;;;;;31.20;19.08;;;;;;;4.31;93.49;104231.63;5050573;28;20091;-73
2022/03/19 03:49:48;;;;;;;26.02;18.75;;;;;;;4.27;92.91;104227.97;5050652;28;20435;-73
2022/03/19 03:52:13;;;;;;;36.63;18.27;;;;;;;4.26;93.17;104230.50;5053375;28;20040;-73
2022/03/19 03:54:39;;;;;;;27.88;17.70;;;;;;;4.24;93.63;104230.38;5053843;28;20037;-73
2022/03/19 03:57:04;;;;;;;28.23;18.10;;;;;;;4.20;93.35;104224.16;5054640;28;20025;-73
2022/03/19 03:59:30;;;;;;;30.55;18.65;;;;;;;4.17;93.74;104223.97;5052901;28;20094;-74
2022/03/19 04:01:58;;;;;;;31.25;17.77;;;;;;;4.17;93.35;104230.84;5054307;28;20086;-73
2022/03/19 04:04:23;;;;;;;26.02;17.50;;;;;;;4.07;93.37;104225.97;5053631;28;20033;-73
2022/03/19 04:06:48;;;;;;;31.30;19.20;;;;;;;4.04;93.83;104229.25;5053575;28;20025;-74
2022/03/19 04:09:14;;;;;;;30.38;18.67;;;;;;;3.98;94.55;104219.44;5053986;28;20021;-73
2022/03/19 04:11:39;;;;;;;36.00;18.58;;;;;;;3.97;94.64;104217.69;5053202;28;20036;-73
2022/03/19 04:14:05;;;;;;;30.45;18.05;;;;;;;3.97;94.73;104221.97;5054181;28;20025;-73
2022/03/19 04:16:31;;;;;;;33.63;18.73;;;;;;;3.86;94.57;104210.09;5054021;28;20388;-73
2022/03/19 04:18:56;;;;;;;28.40;18.05;;;;;;;3.91;95.12;104217.31;5052966;28;20426;-74
2022/03/19 04:21:21;;;;;;;30.95;17.90;;;;;;;3.88;95.24;104200.78;5053857;28;20481;-73
2022/03/19 04:23:47;;;;;;;29.67;17.83;;;;;;;3.94;95.46;104212.34;5053910;28;20070;-73
2022/03/19 04:26:12;;;;;;;30.63;18.30;;;;;;;3.92;95.65;104208.81;5053228;28;20029;-73
2022/03/19 04:28:38;;;;;;;30.45;18.48;;;;;;;3.90;95.82;104214.66;5053219;28;20037;-74
2022/03/19 04:31:03;;;;;;;29.92;18.27;;;;;;;3.85;95.65;104211.81;5053196;28;20032;-74
2022/03/19 04:33:28;;;;;;;27.10;18.67;;;;;;;3.83;95.71;104205.69;5052508;28;20138;-73
2022/03/19 04:38:54;;;;;;;28.00;17.00;;;;;;;3.84;96.37;104210.03;5051563;28;20037;-73
2022/03/19 04:41:19;;;;;;;28.80;18.55;;;;;;;3.86;96.30;104211.03;5052249;28;20032;-73
2022/03/19 04:43:44;;;;;;;27.55;19.00;;;;;;;3.82;96.08;104196.13;5053223;28;20054;-73
2022/03/19 04:46:10;;;;;;;28.67;18.10;;;;;;;3.83;96.72;104200.53;5053474;28;20021;-73
2022/03/19 04:48:35;;;;;;;28.92;18.70;;;;;;;3.81;96.48;104204.69;5053182;28;20072;-73
2022/03/19 04:51:00;;;;;;;31.48;18.40;;;;;;;3.78;96.63;104204.50;5053205;28;20070;-73
2022/03/19 04:53:26;;;;;;;31.30;18.55;;;;;;;3.75;96.67;104194.00;5053087;28;20040;-74
2022/03/19 04:55:51;;;;;;;31.58;19.13;;;;;;;3.72;96.73;104197.28;5052422;28;20032;-73
2022/03/19 04:58:16;;;;;;;35.05;20.10;;;;;;;3.73;96.42;104203.38;5053358;28;20032;-74
2022/03/19 05:00:42;;;;;;;31.75;18.48;;;;;;;3.71;96.94;104197.22;5052345;28;20040;-73
2022/03/19 05:03:09;;;;;;;30.10;18.23;;;;;;;3.68;96.55;104194.44;5052524;28;20029;-73
2022/03/19 05:05:35;;;;;;;32.03;18.25;;;;;;;3.69;97.22;104198.81;5053183;28;20039;-73
2022/03/19 05:08:00;;;;;;;33.10;18.02;;;;;;;3.61;97.13;104194.91;5052333;28;20112;-73
2022/03/19 05:13:11;;;;;;;29.02;17.65;;;;;;;3.56;97.51;104197.19;5053385;28;20458;-73
2022/03/19 05:15:37;;;;;;;34.45;18.15;;;;;;;3.62;97.93;104202.72;5051809;28;20040;-74
2022/03/19 05:18:02;;;;;;;35.53;18.80;;;;;;;3.62;97.69;104200.13;5052875;28;20492;-73
2022/03/19 05:20:28;;;;;;;30.98;17.67;;;;;;;3.58;97.79;104195.59;5052836;28;20071;-73
2022/03/19 05:22:53;;;;;;;30.92;19.10;;;;;;;3.57;98.32;104203.28;5052089;28;20036;-73
2022/03/19 05:25:18;;;;;;;35.17;19.55;;;;;;;3.55;98.41;104202.28;5052539;28;20025;-73
2022/03/19 05:27:44;;;;;;;34.38;18.20;;;;;;;3.54;98.41;104203.09;5052224;28;20435;-73
2022/03/19 05:30:09;;;;;;;32.88;18.75;;;;;;;3.61;98.02;104206.09;5051675;28;20048;-73
2022/03/19 05:32:37;;;;;;;28.50;18.45;;;;;;;3.60;98.28;104206.91;5052781;28;20029;-73
2022/03/19 05:35:04;;;;;;;33.58;18.50;;;;;;;3.60;98.68;104212.06;5052638;28;20029;-73
2022/03/19 05:37:29;;;;;;;34.13;18.10;;;;;;;3.56;98.92;104212.66;5051307;28;20308;-73
2022/03/19 05:39:55;;;;;;;29.40;17.77;;;;;;;3.55;98.90;104200.59;5052402;28;20036;-73
2022/03/19 05:42:24;;;;;;;29.38;18.35;;;;;;;3.55;98.41;104212.59;5052159;28;20025;-74
2022/03/19 05:44:50;;;;;;;32.55;19.00;;;;;;;3.54;98.74;104203.09;5051620;28;20025;-73
2022/03/19 05:47:15;;;;;;;32.80;18.08;;;;;;;3.51;98.21;104214.09;5052254;28;20021;-73
2022/03/19 05:49:41;;;;;;;37.20;18.70;;;;;;;3.54;98.70;104197.94;5052364;28;20025;-73
2022/03/19 05:52:07;;;;;;;30.73;18.52;;;;;;;3.53;99.18;104207.31;5051712;28;20041;-73
2022/03/19 05:54:32;;;;;;;32.78;18.67;;;;;;;3.54;98.71;104210.81;5051382;28;20106;-73
2022/03/19 05:56:57;;;;;;;29.95;18.88;;;;;;;3.48;98.56;104195.88;5051828;28;20025;-73
2022/03/19 05:59:23;;;;;;;29.00;18.45;;;;;;;3.45;98.56;104196.56;5051291;28;20500;-73
2022/03/19 06:01:49;;;;;;;30.15;18.13;;;;;;;3.55;99.22;104204.84;5052346;28;20036;-73
2022/03/19 06:04:15;;;;;;;29.77;18.73;;;;;;;3.58;98.84;104202.47;5050684;28;20032;-73
2022/03/19 06:06:41;;;;;;;33.35;18.73;;;;;;;3.62;98.73;104202.72;5051968;28;20025;-73
2022/03/19 06:09:06;;;;;;;35.65;18.67;;;;;;;3.67;98.37;104208.16;5052155;28;20033;-73
2022/03/19 06:11:32;;;;;;;31.42;18.55;;;;;;;3.69;98.47;104216.88;5050929;28;20037;-73
2022/03/19 06:13:58;;;;;;;32.28;18.02;;;;;;;3.72;98.21;104209.31;5050479;28;20096;-73
2022/03/19 06:16:23;;;;;;;33.08;19.25;;;;;;;3.75;98.50;104212.06;5052128;28;20024;-73
2022/03/19 06:18:51;;;;;;;34.67;17.98;;;;;;;3.82;98.38;104216.78;5050959;28;20036;-73
2022/03/19 06:21:18;;;;;;;29.13;17.17;;;;;;;3.84;97.71;104220.34;5051930;28;20374;-73
2022/03/19 06:23:46;;;;;;;29.25;17.95;;;;;;;3.94;98.05;104214.91;5051142;28;20036;-73
2022/03/19 06:26:13;;;;;;;31.98;17.23;;;;;;;3.98;97.84;104209.13;5050940;28;20461;-73
2022/03/19 06:28:39;;;;;;;25.50;17.60;;;;;;;3.99;97.92;104217.78;5051208;28;20507;-73
2022/03/19 06:31:04;;;;;;;32.92;17.65;;;;;;;4.05;97.19;104212.94;5052249;28;20116;-73
2022/03/19 06:33:29;;;;;;;30.30;16.58;;;;;;;4.14;96.15;104220.34;5050610;28;20090;-73
2022/03/19 06:38:39;;;;;;;30.55;17.83;;;;;;;4.20;96.88;104218.13;5051890;28;20393;-73
2022/03/19 06:41:04;;;;;;;35.92;18.25;;;;;;;4.33;96.57;104219.69;5051282;28;20029;-73
2022/03/19 06:43:30;;;;;;;26.98;16.35;;;;;;;4.39;96.21;104223.50;5050941;28;20534;-73
2022/03/19 06:45:58;;;;;;;30.95;16.55;;;;;;;4.45;96.06;104213.53;5051544;28;20352;-73
2022/03/19 06:48:24;;;;;;;26.30;16.55;;;;;;;4.53;95.74;104219.09;5050517;28;20036;-73
2022/03/19 06:50:50;;;;;;;28.40;15.32;;;;;;;4.60;95.20;104225.50;5050638;28;20048;-73
2022/03/19 06:53:15;;;;;;;27.58;15.82;;;;;;;4.69;95.01;104223.44;5050785;28;20024;-73
2022/03/19 06:55:41;;;;;;;28.13;15.98;;;;;;;4.75;94.57;104216.03;5050469;28;20025;-73
2022/03/19 06:58:06;;;;;;;27.20;16.33;;;;;;;4.86;94.02;104208.84;5051657;28;20415;-73
2022/03/19 07:00:31;;;;;;;29.40;15.35;;;;;;;4.90;94.17;104222.03;5050254;28;20036;-73
2022/03/19 07:02:57;;;;;;;24.88;16.08;;;;;;;4.96;93.48;104210.22;5050865;28;20131;-74
2022/03/19 07:05:24;;;;;;;26.77;14.10;;;;;;;5.03;93.22;104212.31;5051095;28;20028;-73
2022/03/19 07:07:51;;;;;;;22.55;14.70;;;;;;;5.06;92.75;104215.94;5050505;28;20056;-73
2022/03/19 07:10:18;;;;;;;34.10;16.05;;;;;;;5.10;92.77;104209.25;5051023;28;20389;-73
2022/03/19 07:12:46;;;;;;;21.83;14.70;;;;;;;5.16;92.41;104210.47;5050485;28;20415;-73
2022/03/19 07:15:15;;;;;;;24.42;15.32;;;;;;;5.18;92.33;104210.56;5050551;28;20393;-73
2022/03/19 07:17:43;;;;;;;30.25;15.50;;;;;;;5.22;91.99;104220.25;5050633;28;20033;-73
2022/03/19 07:20:09;;;;;;;27.13;15.75;;;;;;;5.24;91.72;104210.88;5051290;28;20033;-73
2022/03/19 07:22:52;;;;;;;30.38;15.65;;;;;;;5.29;91.74;104216.28;5050335;28;20458;-74
2022/03/19 07:25:19;;;;;;;26.02;15.45;;;;;;;5.31;91.39;104220.72;5051295;28;20029;-73
2022/03/19 07:27:44;;;;;;;28.45;15.27;;;;;;;5.37;91.00;104218.47;5054592;28;20025;-73
2022/03/19 07:30:10;;;;;;;26.38;14.23;;;;;;;5.40;91.00;104218.63;5053787;28;20115;-74
2022/03/19 07:32:37;;;;;;;23.98;14.80;;;;;;;5.45;90.40;104211.09;5054444;28;20028;-73
2022/03/19 07:35:02;;;;;;;25.55;14.60;;;;;;;5.48;90.24;104206.06;5058448;28;20075;-73
2022/03/19 07:37:28;;;;;;;24.42;14.23;;;;;;;5.51;90.69;104206.22;5054344;28;20025;-73
2022/03/19 07:39:56;;;;;;;25.70;15.23;;;;;;;5.57;90.47;104205.66;5054548;28;20107;-73
2022/03/19 07:42:22;;;;;;;27.08;14.75;;;;;;;5.61;90.29;104216.25;5054596;28;20406;-73
2022/03/19 07:44:47;;;;;;;26.58;14.70;;;;;;;5.62;89.39;104194.75;5053545;28;20056;-74
2022/03/19 07:47:12;;;;;;;27.42;14.85;;;;;;;5.70;89.81;104200.28;5054097;28;20033;-73
2022/03/19 07:49:39;;;;;;;24.05;14.48;;;;;;;5.77;89.34;104207.56;5053327;28;20061;-73
2022/03/19 07:52:05;;;;;;;25.27;15.32;;;;;;;5.83;89.55;104201.81;5054508;28;20060;-74
2022/03/19 07:54:31;;;;;;;28.33;14.98;;;;;;;5.89;89.17;104207.28;5054566;28;20048;-74
2022/03/19 07:56:57;;;;;;;23.40;15.25;;;;;;;5.96;89.19;104205.94;5053874;28;21087;-74
2022/03/19 07:59:22;;;;;;;25.20;14.20;;;;;;;6.01;88.78;104194.94;5053283;28;20036;-74
2022/03/19 08:01:51;;;;;;;23.73;15.15;;;;;;;6.08;88.35;104197.06;5054136;28;20029;-74
2022/03/19 08:04:16;;;;;;;28.73;13.68;;;;;;;6.15;87.64;104192.16;5053678;28;20029;-74
2022/03/19 08:06:42;;;;;;;23.67;14.48;;;;;;;6.22;88.27;104205.50;5056136;28;20025;-74
2022/03/19 08:09:11;;;;;;;25.17;14.77;;;;;;;6.23;87.27;104185.66;5054503;28;20036;-73
2022/03/19 08:11:36;;;;;;;23.70;14.48;;;;;;;6.37;87.51;104194.94;5053157;28;20060;-73
2022/03/19 08:14:03;;;;;;;23.13;13.75;;;;;;;6.44;87.20;104185.75;5054431;28;20053;-73
2022/03/19 08:16:29;;;;;;;27.50;14.32;;;;;;;6.51;86.97;104180.06;5053917;28;20017;-73
2022/03/19 08:18:54;;;;;;;21.90;13.38;;;;;;;6.63;85.81;104183.22;5052659;28;20032;-73
2022/03/19 08:21:19;;;;;;;24.73;12.52;;;;;;;6.74;85.32;104201.88;5053460;28;20044;-74
2022/03/19 08:23:48;;;;;;;22.35;12.63;;;;;;;6.77;84.98;104187.34;5053919;28;20056;-74
2022/03/19 08:26:14;;;;;;;22.60;13.07;;;;;;;6.91;84.54;104192.28;5052991;28;20074;-74
2022/03/19 08:28:39;;;;;;;23.27;13.35;;;;;;;7.00;84.19;104190.97;5053827;28;20033;-73
2022/03/19 08:31:05;;;;;;;25.25;13.73;;;;;;;7.08;83.58;104183.53;5053693;28;20048;-73
2022/03/19 08:33:30;;;;;;;22.90;13.00;;;;;;;7.14;82.79;104190.69;5053214;28;20033;-73
2022/03/19 08:35:56;;;;;;;25.35;12.77;;;;;;;7.16;82.21;104192.56;5053914;28;20188;-73
2022/03/19 08:41:05;;;;;;;25.15;12.38;;;;;;;7.34;81.65;104196.75;5053388;28;20040;-73
2022/03/19 08:43:30;;;;;;;22.08;12.10;;;;;;;7.41;81.29;104189.28;5053456;28;20029;-74
2022/03/19 08:45:55;;;;;;;18.58;11.85;;;;;;;7.48;80.54;104185.25;5052187;28;20025;-73
2022/03/19 08:48:21;;;;;;;23.80;11.20;;;;;;;7.55;80.02;104184.69;5052713;28;20043;-73
2022/03/19 08:50:46;;;;;;;18.15;11.73;;;;;;;7.59;79.17;104172.75;5053358;28;20037;-73
2022/03/19 08:53:13;;;;;;;21.23;11.65;;;;;;;7.66;79.75;104187.75;5052902;28;20021;-73
2022/03/19 08:55:38;;;;;;;23.58;11.07;;;;;;;7.78;78.97;104184.75;5053042;28;20033;-73
2022/03/19 08:58:04;;;;;;;23.55;12.15;;;;;;;7.85;78.26;104176.44;5053152;28;20124;-73
2022/03/19 09:00:29;;;;;;;21.85;10.57;;;;;;;7.89;78.69;104178.31;5053433;28;20033;-73
2022/03/19 09:02:57;;;;;;;18.13;11.18;;;;;;;8.00;77.53;104186.53;5053503;28;20385;-73
2022/03/19 09:05:23;;;;;;;22.02;10.23;;;;;;;8.05;76.52;104175.53;5052690;28;20474;-73
2022/03/19 09:07:49;;;;;;;21.30;11.18;;;;;;;8.10;76.85;104157.50;5051971;28;20116;-73
2022/03/19 09:10:14;;;;;;;17.45;10.00;;;;;;;8.24;74.77;104171.94;5052858;28;20116;-73
2022/03/19 09:12:41;;;;;;;18.92;10.98;;;;;;;8.33;75.81;104177.47;5052899;28;20107;-73
2022/03/19 09:15:09;;;;;;;17.58;10.30;;;;;;;8.46;75.02;104172.78;5057788;28;20079;-73
2022/03/19 09:17:35;;;;;;;20.02;10.00;;;;;;;8.53;73.55;104161.78;5054210;28;20473;-73
2022/03/19 09:20:01;;;;;;;17.65;10.20;;;;;;;8.61;74.55;104169.06;5054409;28;20032;-74
2022/03/19 09:22:28;;;;;;;18.65;9.88;;;;;;;8.66;73.09;104161.44;5051475;28;20025;-73
2022/03/19 09:24:54;;;;;;;19.80;9.65;;;;;;;8.77;72.17;104167.06;5051345;28;20090;-73
2022/03/19 09:27:19;;;;;;;15.88;9.00;;;;;;;8.83;72.03;104165.56;5052238;28;20029;-72
2022/03/19 09:29:44;;;;;;;17.23;9.40;;;;;;;8.90;72.06;104161.47;5051338;28;20029;-72
2022/03/19 09:32:11;;;;;;;17.80;9.95;;;;;;;8.98;71.06;104159.13;5052740;28;20028;-72
2022/03/19 09:34:37;;;;;;;15.85;9.40;;;;;;;9.04;71.26;104162.84;5052724;28;20100;-73
2022/03/19 09:37:02;;;;;;;17.55;9.20;;;;;;;9.10;70.78;104157.84;5052927;28;20105;-73
2022/03/19 09:39:27;;;;;;;16.92;8.70;;;;;;;9.22;70.02;104159.09;5051855;28;20029;-73
2022/03/19 09:41:55;;;;;;;15.45;8.57;;;;;;;9.24;69.99;104142.72;5051799;28;20028;-73
2022/03/19 09:44:25;;;;;;;19.10;9.00;;;;;;;9.42;70.03;104149.38;5051910;28;20431;-73
2022/03/19 09:46:51;;;;;;;23.60;9.68;;;;;;;9.50;68.72;104146.22;5052420;28;20029;-73
2022/03/19 09:49:16;;;;;;;14.10;8.43;;;;;;;9.59;68.76;104137.81;5050902;28;20033;-72
2022/03/19 09:51:54;;;;;;;13.77;8.35;;;;;;;9.66;68.66;104137.19;5051102;28;20044;-73
2022/03/19 09:54:22;;;;;;;17.13;8.70;;;;;;;9.77;67.79;104128.00;5051973;28;20033;-73
2022/03/19 09:56:47;;;;;;;15.40;8.32;;;;;;;9.88;68.37;104135.28;5051498;28;20485;-73
2022/03/19 09:59:13;;;;;;;15.70;8.75;;;;;;;10.00;67.65;104120.91;5050480;28;20036;-73
2022/03/19 10:01:38;;;;;;;18.98;8.10;;;;;;;10.13;67.52;104114.34;5050737;28;20033;-72
2022/03/19 10:04:07;;;;;;;13.00;7.60;;;;;;;10.21;65.92;104117.22;5050927;28;20049;-72
2022/03/19 10:09:20;;;;;;;18.20;7.82;;;;;;;10.28;63.81;104113.97;5050379;28;20052;-72
2022/03/19 10:11:50;;;;;;;15.55;6.68;;;;;;;10.31;63.92;104121.88;5051407;28;20021;-73
2022/03/19 10:14:20;;;;;;;19.17;6.82;;;;;;;10.39;62.49;104111.66;5051650;28;20025;-72
2022/03/19 10:16:48;;;;;;;13.45;6.28;;;;;;;10.44;61.66;104108.38;5051951;28;20389;-72
2022/03/19 10:19:13;;;;;;;13.90;6.38;;;;;;;10.51;60.12;104091.16;5050403;28;20025;-73
2022/03/19 10:21:41;;;;;;;15.10;7.15;;;;;;;10.57;59.79;104090.47;5051668;28;20028;-73
2022/03/19 10:24:08;;;;;;;12.77;5.97;;;;;;;10.55;59.94;104093.91;5051771;28;20100;-72
2022/03/19 10:26:37;;;;;;;14.70;5.22;;;;;;;10.64;58.43;104084.56;5050895;28;20417;-72
2022/03/19 10:29:09;;;;;;;15.40;5.85;;;;;;;10.71;58.69;104086.50;5052004;28;20089;-72
2022/03/19 10:31:37;;;;;;;12.45;4.93;;;;;;;10.88;57.71;104073.91;5049739;28;20036;-73
2022/03/19 10:34:05;;;;;;;10.75;5.50;;;;;;;11.06;54.54;104076.16;5051781;28;20499;-72
2022/03/19 10:36:36;;;;;;;14.52;5.90;;;;;;;11.12;55.34;104066.75;5054988;28;20032;-73
2022/03/19 10:39:12;;;;;;;13.93;4.93;;;;;;;11.23;55.00;104064.41;5050911;28;20021;-72
2022/03/19 10:41:38;;;;;;;9.68;4.78;;;;;;;11.24;51.30;104060.94;5051077;28;20036;-73
2022/03/19 10:44:16;;;;;;;9.38;4.55;;;;;;;11.34;52.19;104062.91;5055012;28;20036;-73
2022/03/19 10:46:46;;;;;;;10.25;4.07;;;;;;;11.41;48.78;104059.63;5055370;28;20074;-73
2022/03/19 10:49:12;;;;;;;12.13;4.10;;;;;;;11.53;47.48;104055.53;5051752;28;20029;-73
2022/03/19 10:51:40;;;;;;;10.13;3.75;;;;;;;11.53;45.83;104047.69;5066201;28;20110;-73
2022/03/19 10:54:06;;;;;;;8.00;4.05;;;;;;;11.59;45.29;104042.63;5070927;28;20472;-73
2022/03/19 10:56:32;;;;;;;11.02;4.50;;;;;;;11.70;46.34;104030.66;5068080;28;20032;-73
2022/03/19 10:58:57;;;;;;;10.23;4.10;;;;;;;11.83;45.84;104037.94;5071148;28;20112;-73
2022/03/19 11:01:22;;;;;;;12.82;4.50;;;;;;;11.95;44.95;104033.00;5050933;28;20037;-73
2022/03/19 11:03:49;;;;;;;8.98;4.32;;;;;;;11.93;43.61;104031.22;5063588;28;20025;-73
2022/03/19 11:06:15;;;;;;;13.23;3.97;;;;;;;12.04;43.45;104018.38;5061180;28;20522;-73
2022/03/19 11:08:46;;;;;;;10.07;4.03;;;;;;;12.12;43.17;104012.44;5049991;28;20033;-73
2022/03/19 11:11:27;;;;;;;12.30;4.20;;;;;;;12.21;43.44;104008.25;5051272;28;20029;-78
2022/03/19 11:13:54;;;;;;;9.32;3.58;;;;;;;12.40;42.24;104011.28;5050630;28;20025;-72
2022/03/19 11:16:21;;;;;;;11.77;3.58;;;;;;;12.48;40.80;104000.94;5050198;28;20041;-73
2022/03/19 11:18:50;;;;;;;9.10;3.60;;;;;;;12.46;39.95;103993.91;5051042;28;20392;-73
2022/03/19 11:21:16;;;;;;;10.45;3.83;;;;;;;12.46;39.92;103996.53;5050106;28;20024;-73
2022/03/19 11:23:55;;;;;;;8.77;3.83;;;;;;;12.47;41.91;103999.19;5050915;28;20025;-73
2022/03/19 11:26:23;;;;;;;7.57;3.83;;;;;;;12.57;39.02;103988.03;5061856;28;20481;-73
2022/03/19 11:28:49;;;;;;;9.23;3.92;;;;;;;12.64;39.81;103983.78;5050333;28;20078;-74
2022/03/19 11:31:27;;;;;;;10.30;3.67;;;;;;;12.71;40.65;103980.41;5050872;28;20029;-74
2022/03/19 11:33:57;;;;;;;11.13;3.70;;;;;;;12.96;39.82;103980.84;5051806;28;20025;-74